Time;durP1;ratioP1;P1;durP2;ratioP2;P2;SDS_P1;SDS_P2;PMS_P1;PMS_P2;Temp;Humidity;BMP_temperature;BMP_pressure;BME280_temperature;BME280_humidity;BME280_pressure;Samples;Min_cycle;Max_cycle;Signal;HPM_P1;HPM_P2
2023/05/04 00:02:22;;;;;;;24.90;13.90;;;;;;;3.36;67.76;101179.90;134120;1297;23575;-76
2023/05/04 00:05:58;;;;;;;24.80;13.70;;;;;;;3.35;67.94;101177.92;134113;1299;22537;-76
2023/05/04 00:09:39;;;;;;;20.30;13.30;;;;;;;3.29;67.94;101178.48;134230;1297;22390;-77
2023/05/04 00:12:49;;;;;;;20.80;13.40;;;;;;;3.23;67.84;101181.42;134196;1298;23045;-77
2023/05/04 00:16:12;;;;;;;23.10;12.90;;;;;;;3.18;67.96;101182.31;134082;1298;23341;-77
2023/05/04 00:19:18;;;;;;;20.30;12.70;;;;;;;3.15;68.21;101175.81;134196;1297;22423;-77
2023/05/04 00:23:05;;;;;;;23.40;13.60;;;;;;;3.14;68.65;101175.35;134208;1297;23192;-76
2023/05/04 00:26:40;;;;;;;22.60;14.10;;;;;;;3.12;69.10;101175.65;134079;1297;22307;-76
2023/05/04 00:29:53;;;;;;;;;;;;;;;;;;;;;
2023/05/04 00:33:22;;;;;;;;;;;;;;;;;;;;;
2023/05/04 00:36:49;;;;;;;21.40;13.60;;;;;;;2.80;69.67;101163.96;134225;1297;22488;-76
2023/05/04 00:40:34;;;;;;;25.10;12.90;;;;;;;2.71;69.70;101165.71;134196;1297;22276;-76
2023/05/04 00:43:55;;;;;;;22.20;12.60;;;;;;;2.69;69.68;101160.18;134206;1298;22203;-76
2023/05/04 00:47:12;;;;;;;24.90;13.00;;;;;;;2.67;69.84;101162.41;134237;1298;22365;-76
2023/05/04 00:50:34;;;;;;;25.50;14.00;;;;;;;2.60;69.94;101160.76;134199;1297;22439;-76
2023/05/04 00:53:59;;;;;;;24.50;14.20;;;;;;;2.55;70.18;101160.52;134090;1291;22493;-76
2023/05/04 00:57:52;;;;;;;19.70;12.30;;;;;;;2.52;70.39;101164.58;134107;1298;23082;-76
2023/05/04 01:01:20;;;;;;;26.20;14.40;;;;;;;2.50;70.41;101171.13;134229;1298;22444;-76
2023/05/04 01:04:50;;;;;;;23.70;14.20;;;;;;;2.52;70.34;101169.63;134188;1298;22432;-76
2023/05/04 01:08:12;;;;;;;21.70;12.60;;;;;;;2.47;70.60;101168.48;134184;1298;22435;-76
2023/05/04 01:11:35;;;;;;;;;;;;;;;;;;;;;
2023/05/04 01:14:43;;;;;;;25.50;14.10;;;;;;;2.46;70.63;101169.41;134004;1297;22481;-76
2023/05/04 01:17:44;;;;;;;24.50;14.50;;;;;;;2.47;70.81;101172.53;134228;1297;22351;-76
2023/05/04 01:20:48;;;;;;;24.80;13.30;;;;;;;2.41;70.97;101173.39;134200;1297;23118;-76
2023/05/04 01:24:29;;;;;;;20.70;13.40;;;;;;;2.35;70.82;101171.97;134228;1304;23213;-76
2023/05/04 01:31:53;;;;;;;24.30;13.60;;;;;;;2.29;70.89;101171.64;133958;1297;22178;-76
2023/05/04 01:34:58;;;;;;;19.30;12.50;;;;;;;2.26;70.93;101172.69;133989;1300;22224;-76
2023/05/04 01:38:05;;;;;;;21.00;12.70;;;;;;;2.22;70.93;101172.36;134097;1299;22369;-76
2023/05/04 01:41:06;;;;;;;22.60;13.00;;;;;;;2.20;71.10;101171.94;134117;1297;23226;-76
2023/05/04 01:44:07;;;;;;;20.90;13.50;;;;;;;2.19;71.11;101171.64;134231;1301;22378;-77
2023/05/04 01:47:10;;;;;;;23.90;14.00;;;;;;;2.16;71.30;101172.20;134217;1298;22448;-76
2023/05/04 01:51:07;;;;;;;22.00;12.30;;;;;;;2.13;71.31;101172.84;133972;1298;22572;-76
2023/05/04 01:53:45;;;;;;;18.10;11.90;;;;;;;2.10;71.39;101166.09;134086;1297;22461;-76
2023/05/04 01:57:09;;;;;;;22.10;13.10;;;;;;;2.11;71.46;101165.50;134199;1297;22426;-77
2023/05/04 02:00:15;;;;;;;21.60;13.60;;;;;;;2.11;71.59;101166.90;134096;1298;22381;-76
2023/05/04 02:03:20;;;;;;;23.80;13.40;;;;;;;2.09;71.56;101166.98;134247;1297;22221;-76
2023/05/04 02:06:30;;;;;;;23.10;13.10;;;;;;;2.09;71.72;101167.34;133975;1298;23047;-77
2023/05/04 02:09:48;;;;;;;24.80;12.80;;;;;;;2.05;71.81;101170.02;134079;1299;22545;-77
2023/05/04 02:12:51;;;;;;;21.30;12.90;;;;;;;2.01;71.92;101170.75;133984;1301;22321;-76
2023/05/04 02:16:17;;;;;;;23.50;12.90;;;;;;;2.01;71.86;101168.15;134234;1301;23108;-76
2023/05/04 02:19:18;;;;;;;18.90;12.20;;;;;;;1.99;71.81;101167.20;133980;1298;22249;-77
2023/05/04 02:22:24;;;;;;;19.60;12.50;;;;;;;1.98;71.70;101164.13;134086;1297;22422;-77
2023/05/04 02:29:22;;;;;;;19.50;11.70;;;;;;;1.92;71.99;101165.48;134209;1298;22461;-76
2023/05/04 02:32:45;;;;;;;22.20;12.80;;;;;;;1.92;71.99;101166.90;134073;1297;22396;-76
2023/05/04 02:36:06;;;;;;;20.10;13.40;;;;;;;1.92;72.06;101164.30;134238;1297;22455;-76
2023/05/04 02:39:10;;;;;;;20.20;11.80;;;;;;;1.92;71.94;101159.05;134218;1298;22254;-76
2023/05/04 02:42:34;;;;;;;20.90;11.80;;;;;;;1.88;71.76;101161.20;134246;1297;22556;-77
2023/05/04 02:45:35;;;;;;;19.80;12.40;;;;;;;1.85;72.09;101161.92;134103;1301;23020;-77
2023/05/04 02:49:27;;;;;;;;;;;;;;;;;;;;;
2023/05/04 02:52:31;;;;;;;19.50;13.00;;;;;;;1.76;72.00;101163.78;134248;1298;23194;-76
2023/05/04 02:55:36;;;;;;;18.70;12.40;;;;;;;1.76;72.28;101160.66;134096;1298;23095;-76
2023/05/04 02:58:53;;;;;;;21.50;12.70;;;;;;;1.74;72.52;101158.85;134225;1297;23142;-76
2023/05/04 03:02:17;;;;;;;18.10;11.90;;;;;;;1.66;72.74;101155.08;134103;1297;22337;-76
2023/05/04 03:05:21;;;;;;;19.30;12.30;;;;;;;1.60;72.60;101152.09;134209;1297;22363;-77
2023/05/04 03:08:28;;;;;;;17.20;12.00;;;;;;;1.54;72.40;101155.71;134121;1297;22219;-77
2023/05/04 03:12:10;;;;;;;18.60;11.60;;;;;;;1.52;72.42;101158.48;134278;1297;22399;-77
2023/05/04 03:15:11;;;;;;;17.80;10.70;;;;;;;1.48;72.31;101159.52;134095;1297;22673;-77
2023/05/04 03:18:11;;;;;;;;;;;;;;;1.48;72.47;101162.36;134143;1298;22440;-76
2023/05/04 03:21:16;;;;;;;18.10;11.30;;;;;;;1.47;72.59;101159.78;134207;1297;22359;-76
2023/05/04 03:24:40;;;;;;;16.20;10.90;;;;;;;1.47;72.57;101165.02;134243;1291;22366;-76
2023/05/04 03:28:14;;;;;;;17.90;10.80;;;;;;;1.47;72.47;101164.84;134200;1297;23158;-77
2023/05/04 03:32:08;;;;;;;;;;;;;;;;;;;;;
2023/05/04 03:40:23;;;;;;;;;;;;;;;;;;;;;
2023/05/04 03:43:47;;;;;;;16.90;11.70;;;;;;;1.44;73.03;101169.68;133990;1297;22449;-76
2023/05/04 03:47:43;;;;;;;;;;;;;;;;;;;;;
2023/05/04 03:51:19;;;;;;;16.30;10.10;;;;;;;1.68;73.05;101169.10;133973;1299;23083;-76
2023/05/04 03:54:23;;;;;;;17.30;11.20;;;;;;;1.87;73.19;101168.93;134094;1298;22377;-76
2023/05/04 03:57:31;;;;;;;18.20;11.90;;;;;;;2.16;73.42;101169.73;134139;1298;22999;-76
2023/05/04 04:00:34;;;;;;;14.40;9.90;;;;;;;2.48;73.26;101171.39;134100;1298;22233;-76
2023/05/04 04:03:52;;;;;;;16.90;11.00;;;;;;;2.88;73.34;101168.89;133978;1298;22177;-76
2023/05/04 04:07:48;;;;;;;;;;;;;;;;;;;;;
2023/05/04 04:11:56;;;;;;;14.80;10.40;;;;;;;4.04;72.64;101174.30;134201;1298;22317;-76
2023/05/04 04:15:49;;;;;;;;;;;;;;;;;;;;;
2023/05/04 04:19:07;;;;;;;;;;;;;;;;;;;;;
2023/05/04 04:22:35;;;;;;;15.10;10.10;;;;;;;5.71;72.02;101176.80;134188;1298;22244;-76
2023/05/04 04:26:09;;;;;;;16.80;11.40;;;;;;;6.33;71.41;101176.17;134242;1297;23235;-76
2023/05/04 04:29:38;;;;;;;17.60;12.40;;;;;;;7.05;70.98;101176.71;134257;1297;22833;-77
2023/05/04 04:32:59;;;;;;;23.30;13.60;;;;;;;7.84;69.99;101175.46;134214;1297;22357;-76
2023/05/04 04:36:06;;;;;;;24.10;14.50;;;;;;;8.26;69.22;101176.67;134207;1298;22367;-76
2023/05/04 04:39:10;;;;;;;19.80;12.90;;;;;;;8.71;68.72;101172.00;134253;1297;23220;-77
2023/05/04 04:42:24;;;;;;;;;;;;;;;;;;;;;
2023/05/04 04:45:25;;;;;;;;;;;;;;;9.69;67.59;101168.89;134244;1297;22471;-76
2023/05/04 04:48:26;;;;;;;19.80;11.70;;;;;;;10.09;66.69;101166.94;134247;1297;23111;-76
2023/05/04 04:51:27;;;;;;;18.00;12.00;;;;;;;10.37;65.82;101166.92;134227;1298;22209;-76
2023/05/04 04:55:09;;;;;;;20.70;12.60;;;;;;;10.71;65.38;101169.10;134217;1297;23167;-76
2023/05/04 05:06:44;;;;;;;17.60;11.40;;;;;;;12.44;62.60;101170.17;133974;1298;22342;-76
2023/05/04 05:09:49;;;;;;;14.70;10.40;;;;;;;12.79;61.86;101168.66;134235;1298;23115;-75
2023/05/04 05:13:03;;;;;;;15.80;10.80;;;;;;;13.05;61.15;101165.63;134253;1298;22351;-76
2023/05/04 05:16:19;;;;;;;19.30;10.70;;;;;;;13.47;60.77;101165.73;134218;1297;23145;-76
2023/05/04 05:19:28;;;;;;;17.90;10.30;;;;;;;13.86;59.81;101161.44;134114;1298;22887;-76
2023/05/04 05:23:00;;;;;;;18.30;10.70;;;;;;;14.25;58.96;101157.89;134156;1298;22236;-77
2023/05/04 05:26:01;;;;;;;21.10;11.40;;;;;;;14.64;58.73;101159.38;134222;1298;23130;-76
2023/05/04 05:29:54;;;;;;;;;;;;;;;;;;;;;
2023/05/04 05:33:39;;;;;;;17.60;10.80;;;;;;;15.38;56.05;101162.38;133942;1297;22285;-76
2023/05/04 05:37:42;;;;;;;;;;;;;;;;;;;;;
2023/05/04 05:41:27;;;;;;;16.30;10.40;;;;;;;16.07;54.42;101160.30;134261;1298;22334;-76
2023/05/04 05:45:00;;;;;;;18.00;10.70;;;;;;;16.31;53.92;101163.09;134216;1298;23236;-76
2023/05/04 05:48:45;;;;;;;18.10;11.10;;;;;;;16.67;53.25;101159.15;134114;1298;22151;-76
2023/05/04 05:52:33;;;;;;;16.80;9.80;;;;;;;16.82;52.42;101162.92;134247;1297;23050;-76
2023/05/04 05:56:00;;;;;;;22.90;11.10;;;;;;;16.73;51.30;101161.45;134189;1297;22497;-76
2023/05/04 05:59:06;;;;;;;;;;;;;;;16.96;51.24;101162.27;134008;1297;23132;-77
2023/05/04 06:06:51;;;;;;;;;;;;;;;;;;;;;
2023/05/04 06:11:38;;;;;;;17.70;10.70;;;;;;;17.70;49.04;101159.23;133903;1305;22406;-76
2023/05/04 06:15:19;;;;;;;14.80;10.10;;;;;;;17.82;48.32;101153.57;134136;1298;22288;-76
2023/05/04 06:22:30;;;;;;;14.00;9.30;;;;;;;18.27;47.01;101156.73;134232;1297;22372;-76
2023/05/04 06:25:58;;;;;;;;;;;;;;;;;;;;;
2023/05/04 06:30:17;;;;;;;;;;;;;;;;;;;;;
2023/05/04 06:35:13;;;;;;;12.50;9.40;;;;;;;18.72;45.72;101159.82;134153;1298;22427;-76
2023/05/04 06:38:54;;;;;;;16.10;9.20;;;;;;;18.91;45.12;101161.59;133763;1298;22384;-77
2023/05/04 06:42:44;;;;;;;10.80;7.10;;;;;;;19.37;44.87;101160.05;134177;1298;22445;-77
2023/05/04 06:54:38;;;;;;;;;;;;;;;;;;;;;
2023/05/04 07:02:53;;;;;;;;;;;;;;;;;;;;;
2023/05/04 07:11:32;;;;;;;7.00;5.60;;;;;;;20.74;39.68;101163.54;134123;1298;22364;-77
2023/05/04 07:15:41;;;;;;;;;;;;;;;;;;;;;
2023/05/04 07:28:06;;;;;;;;;;;;;;;;;;;;;
2023/05/04 07:35:55;;;;;;;;;;;;;;;;;;;;;
2023/05/04 07:39:42;;;;;;;6.60;4.20;;;;;;;19.60;36.50;101154.36;134233;1297;22468;-77
2023/05/04 07:44:07;;;;;;;6.50;3.50;;;;;;;19.82;36.13;101152.45;134246;1298;22227;-77
2023/05/04 07:51:18;;;;;;;4.20;3.40;;;;;;;18.91;34.79;101149.55;129922;1297;5371508;-77
2023/05/04 07:55:00;;;;;;;;;;;;;;;;;;;;;
2023/05/04 07:58:15;;;;;;;7.50;3.00;;;;;;;18.96;34.36;101138.30;134087;1297;22531;-77
2023/05/04 08:06:25;;;;;;;3.00;2.40;;;;;;;19.03;33.71;101135.61;133933;1298;22226;-77
2023/05/04 08:09:37;;;;;;;3.20;2.30;;;;;;;18.58;32.40;101136.91;134225;1297;22266;-77
2023/05/04 08:17:13;;;;;;;4.50;2.70;;;;;;;18.09;32.89;101130.98;134152;1297;22167;-77
2023/05/04 08:20:37;;;;;;;4.90;2.80;;;;;;;18.03;33.08;101131.55;134218;1282;22322;-77
2023/05/04 08:24:31;;;;;;;;;;;;;;;;;;;;;
2023/05/04 08:28:16;;;;;;;4.10;2.90;;;;;;;18.23;33.14;101125.67;133962;1298;22294;-77
2023/05/04 08:31:37;;;;;;;;;;;;;;;;;;;;;
2023/05/04 08:35:02;;;;;;;4.40;2.70;;;;;;;18.14;33.43;101128.38;134208;1298;22948;-77
2023/05/04 08:38:32;;;;;;;;;;;;;;;;;;;;;
2023/05/04 08:41:45;;;;;;;3.80;2.80;;;;;;;18.03;32.72;101128.20;134253;1298;22412;-77
2023/05/04 08:45:41;;;;;;;4.60;3.10;;;;;;;17.91;33.15;101122.41;134225;1298;22372;-77
2023/05/04 08:50:02;;;;;;;;;;;;;;;;;;;;;
2023/05/04 08:53:27;;;;;;;4.80;2.40;;;;;;;18.15;33.12;101122.78;134160;1298;22391;-78
2023/05/04 08:57:08;;;;;;;4.40;2.50;;;;;;;18.27;33.08;101122.85;134207;1302;23234;-78
2023/05/04 09:00:51;;;;;;;;;;;;;;;;;;;;;
2023/05/04 09:05:10;;;;;;;4.30;3.20;;;;;;;18.61;33.05;101113.30;134223;1298;23202;-78
2023/05/04 09:08:31;;;;;;;4.40;2.70;;;;;;;18.81;32.80;101114.41;134093;1298;23050;-78
2023/05/04 09:11:57;;;;;;;3.20;2.80;;;;;;;18.54;31.86;101115.84;134083;1298;22266;-78
2023/05/04 09:15:49;;;;;;;;;;;;;;;;;;;;;
2023/05/04 09:19:47;;;;;;;;;;;;;;;;;;;;;
2023/05/04 09:23:21;;;;;;;;;;;;;;;;;;;;;
2023/05/04 09:26:39;;;;;;;4.50;2.60;;;;;;;18.37;32.36;101102.02;134078;1295;22382;-78
2023/05/04 09:29:54;;;;;;;3.70;2.50;;;;;;;18.21;32.39;101099.83;134232;1298;22441;-78
2023/05/04 09:33:09;;;;;;;3.00;2.70;;;;;;;18.51;32.50;101097.30;134188;1298;22368;-78
2023/05/04 09:37:03;;;;;;;5.90;3.10;;;;;;;18.68;32.18;101092.42;134204;1298;22533;-78
2023/05/04 09:45:05;;;;;;;3.80;2.60;;;;;;;18.36;31.91;101090.69;134035;1298;22365;-77
2023/05/04 09:48:21;;;;;;;3.60;2.70;;;;;;;18.43;32.26;101087.80;134229;1305;23285;-77
2023/05/04 09:52:01;;;;;;;;;;;;;;;;;;;;;
2023/05/04 09:55:24;;;;;;;4.30;2.80;;;;;;;19.23;32.33;101075.05;134205;1297;22216;-78
2023/05/04 09:58:41;;;;;;;6.80;3.30;;;;;;;19.12;31.59;101082.27;134126;1303;22863;-78
2023/05/04 10:02:08;;;;;;;4.00;2.50;;;;;;;18.68;31.49;101074.84;134097;1298;22219;-78
2023/05/04 10:05:20;;;;;;;5.10;3.20;;;;;;;18.60;31.76;101078.05;134192;1298;22361;-78
2023/05/04 10:08:28;;;;;;;3.30;2.50;;;;;;;18.56;32.60;101078.29;134093;1298;22362;-78
2023/05/04 10:20:49;;;;;;;;;;;;;;;;;;;;;
2023/05/04 10:24:57;;;;;;;4.80;2.40;;;;;;;18.35;32.30;101066.45;134232;1298;22238;-78
2023/05/04 10:29:42;;;;;;;3.20;2.40;;;;;;;18.13;31.80;101059.76;134191;1301;22164;-77
2023/05/04 10:33:35;;;;;;;3.60;2.50;;;;;;;18.37;32.06;101056.92;134115;1298;22702;-78
2023/05/04 10:37:30;;;;;;;3.00;2.30;;;;;;;18.58;31.99;101047.04;133947;1298;22429;-78
2023/05/04 10:40:52;;;;;;;4.50;2.70;;;;;;;18.57;31.91;101043.26;134209;1297;22241;-78
2023/05/04 10:44:05;;;;;;;3.80;2.50;;;;;;;18.60;31.80;101042.28;134223;1297;22364;-78
2023/05/04 10:47:39;;;;;;;3.40;2.40;;;;;;;18.71;31.31;101046.30;134208;1302;22226;-78
2023/05/04 10:51:35;;;;;;;;;;;;;;;;;;;;;
2023/05/04 10:55:00;;;;;;;5.60;2.60;;;;;;;18.43;31.59;101037.49;134231;1301;23127;-78
2023/05/04 10:58:29;;;;;;;3.40;2.50;;;;;;;18.56;32.18;101033.19;134224;1299;22358;-78
2023/05/04 11:02:20;;;;;;;4.90;3.00;;;;;;;18.66;32.31;101030.98;134204;1305;22454;-78
2023/05/04 11:06:17;;;;;;;;;;;;;;;;;;;;;
2023/05/04 11:10:19;;;;;;;;;;;;;;;;;;;;;
2023/05/04 11:13:44;;;;;;;4.60;2.80;;;;;;;18.30;32.02;101014.05;134094;1297;22383;-78
2023/05/04 11:16:46;;;;;;;4.10;2.50;;;;;;;17.99;32.73;101007.13;134223;1298;22454;-78
2023/05/04 11:19:51;;;;;;;4.30;2.80;;;;;;;18.02;32.29;101000.63;134205;1298;22360;-78
2023/05/04 11:23:12;;;;;;;4.60;2.80;;;;;;;18.28;32.33;100997.75;134088;1302;22254;-78
2023/05/04 11:26:48;;;;;;;7.40;2.60;;;;;;;18.30;31.76;100992.52;134191;1297;22555;-78
2023/05/04 11:30:15;;;;;;;3.70;2.80;;;;;;;18.07;32.24;100986.45;134160;1298;22243;-78
2023/05/04 11:33:18;;;;;;;5.90;2.70;;;;;;;18.05;32.62;100983.33;134120;1298;22429;-78
2023/05/04 11:37:02;;;;;;;4.10;2.80;;;;;;;18.20;32.33;100979.57;134086;1304;22217;-78
2023/05/04 11:40:26;;;;;;;6.70;3.00;;;;;;;18.09;31.94;100979.35;134226;1297;22384;-78
2023/05/04 11:43:44;;;;;;;4.40;2.80;;;;;;;17.90;32.14;100969.05;134203;1298;22352;-78
2023/05/04 11:46:46;;;;;;;4.40;2.80;;;;;;;18.17;32.39;100966.23;134010;1298;22396;-78
2023/05/04 11:49:50;;;;;;;5.20;2.70;;;;;;;18.27;32.32;100973.32;134204;1298;22175;-78
2023/05/04 11:53:22;;;;;;;;;;;;;;;;;;;;;
2023/05/04 11:56:23;;;;;;;3.80;2.80;;;;;;;18.02;31.81;100965.91;134205;1298;22407;-78
2023/05/04 11:59:27;;;;;;;3.70;2.60;;;;;;;18.10;32.27;100964.74;134086;1298;22356;-78
2023/05/04 12:02:40;;;;;;;3.00;2.70;;;;;;;18.30;32.39;100964.70;134093;1298;23336;-78
2023/05/04 12:05:57;;;;;;;5.20;2.40;;;;;;;18.13;32.00;100963.44;134196;1299;24013;-77
2023/05/04 12:10:15;;;;;;;4.90;2.60;;;;;;;18.11;32.79;100963.30;133975;1301;22420;-78
2023/05/04 12:13:42;;;;;;;4.70;2.70;;;;;;;18.14;31.87;100962.62;134027;1305;22208;-78
2023/05/04 12:17:05;;;;;;;3.10;2.60;;;;;;;17.93;31.96;100960.77;134072;1299;22419;-78
2023/05/04 12:20:37;;;;;;;5.00;2.60;;;;;;;17.85;32.19;100961.58;134220;1298;23321;-78
2023/05/04 12:24:29;;;;;;;;;;;;;;;;;;;;;
2023/05/04 12:28:22;;;;;;;6.90;2.80;;;;;;;18.04;32.72;100948.88;134221;1298;22370;-78
2023/05/04 12:32:13;;;;;;;;;;;;;;;;;;;;;
2023/05/04 12:35:59;;;;;;;4.90;2.70;;;;;;;18.32;32.44;100938.02;134125;1298;22268;-78
2023/05/04 12:39:24;;;;;;;;;;;;;;;18.28;32.42;100935.70;134242;1298;22477;-78
2023/05/04 12:43:05;;;;;;;;;;;;;;;;;;;;;
2023/05/04 12:46:55;;;;;;;;;;;;;;;;;;;;;
2023/05/04 12:50:45;;;;;;;;;;;;;;;;;;;;;
2023/05/04 12:53:54;;;;;;;5.00;2.80;;;;;;;18.21;32.59;100917.84;134166;1298;23055;-78
2023/05/04 12:57:44;;;;;;;;;;;;;;;;;;;;;
2023/05/04 13:01:25;;;;;;;;;;;;;;;;;;;;;
2023/05/04 13:04:47;;;;;;;3.90;2.90;;;;;;;18.04;32.62;100919.16;133965;1298;23160;-78
2023/05/04 13:08:07;;;;;;;3.90;2.50;;;;;;;18.05;32.58;100916.70;134225;1298;22352;-78
2023/05/04 13:12:29;;;;;;;6.90;2.90;;;;;;;18.07;32.41;100913.54;134248;1298;22471;-78
2023/05/04 13:15:35;;;;;;;2.90;2.40;;;;;;;18.08;32.83;100906.23;134233;1298;22377;-78
2023/05/04 13:24:01;;;;;;;6.30;2.80;;;;;;;18.07;31.77;100901.42;134088;1298;22370;-78
2023/05/04 13:27:20;;;;;;;5.70;2.70;;;;;;;17.82;32.10;100900.82;134014;1298;23174;-78
2023/05/04 13:30:29;;;;;;;4.90;2.60;;;;;;;17.72;32.30;100897.57;134214;1298;22360;-78
2023/05/04 13:33:37;;;;;;;5.50;2.50;;;;;;;17.76;32.36;100893.95;134076;1299;22167;-78
2023/05/04 13:37:04;;;;;;;4.90;2.60;;;;;;;17.69;32.57;100892.36;134102;1298;22600;-78
2023/05/04 13:40:21;;;;;;;5.10;2.80;;;;;;;17.65;32.74;100880.08;134239;1300;22412;-78
2023/05/04 13:43:35;;;;;;;;;;;;;;;;;;;;;
2023/05/04 13:46:38;;;;;;;6.40;3.00;;;;;;;17.75;32.65;100863.77;134233;1301;23133;-78
2023/05/04 13:49:39;;;;;;;3.00;2.20;;;;;;;17.86;33.32;100858.21;134104;1297;22813;-78
2023/05/04 13:52:55;;;;;;;9.20;2.50;;;;;;;18.01;33.43;100859.22;134121;1298;22440;-78
2023/05/04 13:56:22;;;;;;;3.90;2.70;;;;;;;18.15;33.38;100862.42;134226;1299;22472;-78
2023/05/04 13:59:25;;;;;;;3.80;2.70;;;;;;;18.10;32.95;100855.66;134224;1297;22220;-78
2023/05/04 14:02:31;;;;;;;2.90;2.30;;;;;;;18.00;33.14;100850.98;134249;1297;22204;-78
2023/05/04 14:06:02;;;;;;;3.30;2.30;;;;;;;17.98;33.01;100848.16;134258;1297;22402;-78
2023/05/04 14:09:04;;;;;;;3.20;2.00;;;;;;;17.95;32.84;100839.39;134239;1297;22573;-78
2023/05/04 14:12:05;;;;;;;6.20;2.50;;;;;;;17.86;32.60;100837.89;134230;1298;22623;-78
2023/05/04 14:15:06;;;;;;;2.80;2.20;;;;;;;17.72;32.40;100831.16;134264;1298;22352;-78
2023/05/04 14:18:11;;;;;;;4.10;2.60;;;;;;;17.62;32.45;100832.20;134216;1297;22364;-77
2023/05/04 14:25:06;;;;;;;3.80;2.20;;;;;;;17.53;32.14;100832.50;134109;1300;22342;-78
2023/05/04 14:28:23;;;;;;;6.40;2.40;;;;;;;17.43;32.37;100827.02;134218;1297;22221;-78
2023/05/04 14:31:32;;;;;;;4.30;2.30;;;;;;;17.38;33.08;100825.36;134220;1297;22236;-78
2023/05/04 14:34:33;;;;;;;2.90;2.30;;;;;;;17.40;32.85;100825.65;134251;1297;23028;-77
2023/05/04 14:37:36;;;;;;;6.70;2.70;;;;;;;17.42;32.98;100819.96;134127;1298;22373;-78
2023/05/04 14:41:01;;;;;;;3.20;2.00;;;;;;;17.47;33.18;100820.04;134068;1301;22397;-78
2023/05/04 14:44:11;;;;;;;4.10;2.60;;;;;;;17.51;33.22;100807.48;134215;1297;23164;-78
2023/05/04 14:47:32;;;;;;;5.90;2.40;;;;;;;17.54;32.88;100800.82;134137;1297;22407;-78
2023/05/04 14:50:33;;;;;;;3.20;2.90;;;;;;;17.55;32.85;100798.55;134231;1297;23178;-78
2023/05/04 14:53:58;;;;;;;7.70;2.20;;;;;;;17.53;32.85;100797.54;134194;1301;23051;-78
2023/05/04 14:56:59;;;;;;;3.10;2.20;;;;;;;17.54;32.75;100792.06;134104;1298;22259;-78
2023/05/04 15:00:07;;;;;;;6.70;2.80;;;;;;;17.54;32.89;100792.16;134224;1298;22162;-78
2023/05/04 15:03:08;;;;;;;5.20;2.10;;;;;;;17.62;33.07;100794.75;133949;1298;22227;-78
2023/05/04 15:06:31;;;;;;;4.60;2.00;;;;;;;17.65;32.99;100800.23;134224;1298;22231;-78
2023/05/04 15:09:32;;;;;;;3.50;2.10;;;;;;;17.47;32.61;100796.10;134225;1305;22229;-78
2023/05/04 15:12:38;;;;;;;3.50;2.20;;;;;;;17.34;32.34;100792.21;134237;1304;22158;-78
2023/05/04 15:15:46;;;;;;;8.10;2.30;;;;;;;17.24;32.62;100788.51;134224;1297;23097;-78
2023/05/04 15:18:47;;;;;;;4.50;2.30;;;;;;;17.21;32.85;100786.91;134227;1298;22420;-78
2023/05/04 15:22:29;;;;;;;3.10;2.10;;;;;;;17.20;32.58;100786.63;134205;1298;23067;-78
2023/05/04 15:25:52;;;;;;;2.90;2.30;;;;;;;17.19;32.65;100784.29;134215;1297;22504;-77
2023/05/04 15:29:28;;;;;;;;;;;;;;;;;;;;;
2023/05/04 15:32:40;;;;;;;6.40;2.10;;;;;;;17.02;32.37;100777.71;133978;1297;22355;-78
2023/05/04 15:36:10;;;;;;;3.10;1.90;;;;;;;16.99;32.81;100775.05;134224;1297;22400;-78
2023/05/04 15:42:59;;;;;;;4.20;2.20;;;;;;;17.00;32.80;100768.91;134215;1297;22546;-78
2023/05/04 15:46:15;;;;;;;2.20;2.00;;;;;;;17.03;32.84;100767.02;133987;1298;22212;-78
2023/05/04 15:49:16;;;;;;;2.60;2.10;;;;;;;17.03;32.61;100768.64;134213;1298;22413;-78
2023/05/04 15:52:17;;;;;;;3.40;2.10;;;;;;;16.96;32.40;100766.61;134234;1301;22490;-78
2023/05/04 15:55:49;;;;;;;;;;;;;;;;;;;;;
2023/05/04 15:58:53;;;;;;;2.90;2.50;;;;;;;16.91;33.15;100762.40;134170;1297;22422;-78
2023/05/04 16:01:54;;;;;;;5.00;2.20;;;;;;;16.88;33.10;100758.21;134222;1298;22372;-78
2023/05/04 16:05:16;;;;;;;3.20;2.10;;;;;;;16.85;33.46;100759.95;134221;1297;22441;-78
2023/05/04 16:08:19;;;;;;;3.90;2.20;;;;;;;16.81;33.03;100759.02;134260;1297;22363;-78
2023/05/04 16:11:46;;;;;;;6.50;2.50;;;;;;;16.77;33.26;100762.42;134200;1298;22519;-78
2023/05/04 16:14:50;;;;;;;3.50;2.20;;;;;;;16.72;33.60;100757.26;134229;1298;22370;-78
2023/05/04 16:17:52;;;;;;;6.80;2.00;;;;;;;16.66;33.93;100756.08;134240;1297;22422;-78
2023/05/04 16:21:24;;;;;;;4.70;2.50;;;;;;;16.64;33.91;100755.07;134252;1297;22420;-78
2023/05/04 16:24:38;;;;;;;;;;;;;;;;;;;;;
2023/05/04 16:27:47;;;;;;;4.50;2.50;;;;;;;16.55;34.06;100751.84;134209;1297;22351;-78
2023/05/04 16:30:54;;;;;;;6.30;2.50;;;;;;;16.52;33.98;100748.15;134118;1298;22395;-78
2023/05/04 16:34:07;;;;;;;3.40;2.30;;;;;;;16.47;34.07;100744.30;134206;1298;22383;-78
2023/05/04 16:37:08;;;;;;;3.80;2.40;;;;;;;16.43;33.99;100739.12;134228;1297;22869;-78
2023/05/04 16:40:31;;;;;;;3.80;2.00;;;;;;;16.43;34.12;100733.58;134224;1297;22228;-78
2023/05/04 16:43:32;;;;;;;4.50;2.50;;;;;;;16.43;34.33;100731.73;134185;1305;22417;-78
2023/05/04 16:46:35;;;;;;;4.50;2.40;;;;;;;16.41;34.60;100729.93;134266;1298;22368;-78
2023/05/04 16:49:39;;;;;;;6.10;2.80;;;;;;;16.35;34.63;100725.26;134221;1298;23119;-78
2023/05/04 16:52:40;;;;;;;5.20;2.80;;;;;;;16.31;34.76;100721.30;134217;1298;22345;-78
2023/05/04 16:55:41;;;;;;;4.40;2.90;;;;;;;16.29;35.11;100719.77;134212;1298;22354;-78
2023/05/04 16:58:45;;;;;;;7.80;2.70;;;;;;;16.26;35.38;100717.63;134254;1297;22288;-78
2023/05/04 17:01:46;;;;;;;5.00;2.20;;;;;;;16.20;35.52;100719.08;134207;1298;23045;-78
2023/05/04 17:04:47;;;;;;;2.60;2.00;;;;;;;16.14;35.65;100719.42;134070;1299;23170;-78
2023/05/04 17:07:56;;;;;;;5.30;2.40;;;;;;;16.07;35.82;100718.03;134226;1298;23090;-78
2023/05/04 17:11:27;;;;;;;4.20;2.40;;;;;;;15.98;35.97;100720.21;134233;1298;22367;-78
2023/05/04 17:15:02;;;;;;;6.00;2.30;;;;;;;15.87;36.04;100722.19;134217;1298;22448;-77
2023/05/04 17:18:08;;;;;;;3.10;2.20;;;;;;;15.80;36.14;100720.63;134185;1298;22627;-78
2023/05/04 17:21:30;;;;;;;3.00;2.40;;;;;;;15.74;36.22;100722.72;134196;1297;23183;-78
2023/05/04 17:24:48;;;;;;;4.10;2.00;;;;;;;15.69;36.19;100720.71;134229;1297;22369;-78
2023/05/04 17:27:57;;;;;;;6.20;2.70;;;;;;;15.61;36.33;100718.66;134252;1297;22124;-78
2023/05/04 17:31:48;;;;;;;;;;;;;;;;;;;;;
2023/05/04 17:35:28;;;;;;;;;;;;;;;;;;;;;
2023/05/04 17:38:59;;;;;;;5.10;2.40;;;;;;;15.42;36.52;100720.49;134191;1298;22264;-78
2023/05/04 17:42:03;;;;;;;4.10;2.60;;;;;;;15.36;36.68;100717.10;134242;1298;22436;-78
2023/05/04 17:45:28;;;;;;;4.00;2.70;;;;;;;15.33;36.80;100718.91;134224;1298;22231;-78
2023/05/04 17:48:34;;;;;;;3.40;2.50;;;;;;;15.26;36.97;100722.92;134239;1297;23267;-78
2023/05/04 17:51:41;;;;;;;7.00;3.00;;;;;;;15.20;36.99;100718.41;134236;1297;22435;-78
2023/05/04 17:54:45;;;;;;;5.80;2.50;;;;;;;15.15;37.06;100713.08;134217;1298;22395;-78
2023/05/04 17:57:46;;;;;;;7.70;3.00;;;;;;;15.06;37.10;100714.64;134232;1297;22397;-78
2023/05/04 18:01:15;;;;;;;4.90;3.00;;;;;;;14.98;37.25;100719.77;134211;1305;22460;-78
2023/05/04 18:04:46;;;;;;;7.30;3.40;;;;;;;14.89;37.40;100722.89;134188;1297;22382;-78
2023/05/04 18:07:46;;;;;;;3.80;3.00;;;;;;;14.79;37.61;100724.02;134238;1297;22478;-78
2023/05/04 18:10:53;;;;;;;;;;;;;;;14.71;37.68;100723.89;134232;1298;22482;-78
2023/05/04 18:13:57;;;;;;;11.60;5.80;;;;;;;14.63;37.94;100728.75;134272;1295;22444;-78
2023/05/04 18:17:02;;;;;;;13.00;5.70;;;;;;;14.54;38.39;100729.29;134095;1297;22421;-77
2023/05/04 18:20:07;;;;;;;10.50;5.90;;;;;;;14.48;38.70;100732.55;134249;1297;22832;-78
2023/05/04 18:23:15;;;;;;;10.30;5.90;;;;;;;14.43;39.10;100743.14;133929;1301;22912;-77
2023/05/04 18:26:19;;;;;;;17.30;5.80;;;;;;;14.35;40.04;100745.95;134108;1297;23258;-78
2023/05/04 18:29:50;;;;;;;15.20;6.70;;;;;;;14.25;40.81;100743.45;134253;1297;22382;-78
2023/05/04 18:32:54;;;;;;;13.30;6.10;;;;;;;14.18;41.30;100741.52;134155;1297;23104;-78
2023/05/04 18:36:02;;;;;;;16.90;10.10;;;;;;;14.11;41.72;100747.99;134282;1297;23118;-78
2023/05/04 18:39:24;;;;;;;8.70;3.80;;;;;;;14.01;42.26;100747.33;134105;1301;22382;-78